createdAt,value
2022-08-24T00:00:35.003Z,7.47
2022-08-24T00:03:02.654Z,8.15
2022-08-24T00:05:29.832Z,14.95
2022-08-24T00:07:56.909Z,9.57
2022-08-24T00:10:25.127Z,8.38
2022-08-24T00:12:52.305Z,7.65
2022-08-24T00:15:19.442Z,7.90
2022-08-24T00:17:46.468Z,8.15
2022-08-24T00:20:13.716Z,8.05
2022-08-24T00:22:41.174Z,7.87
2022-08-24T00:25:11.097Z,8.35
2022-08-24T00:27:39.339Z,8.18
2022-08-24T00:30:10.022Z,7.93
2022-08-24T00:32:37.846Z,8.15
2022-08-24T00:35:06.778Z,9.00
2022-08-24T00:37:34.208Z,8.25
2022-08-24T00:40:01.371Z,7.72
2022-08-24T00:42:28.233Z,7.85
2022-08-24T00:44:54.872Z,8.02
2022-08-24T00:47:25.776Z,7.85
2022-08-24T00:50:09.174Z,7.18
2022-08-24T00:52:43.877Z,7.40
2022-08-24T00:55:17.718Z,7.47
2022-08-24T00:57:49.623Z,7.60
2022-08-24T01:00:21.774Z,7.57
2022-08-24T01:02:52.924Z,7.12
2022-08-24T01:05:20.220Z,7.67
2022-08-24T01:07:49.377Z,7.28
2022-08-24T01:10:21.119Z,7.15
2022-08-24T01:13:00.786Z,7.97
2022-08-24T01:15:30.796Z,7.32
2022-08-24T01:18:16.784Z,7.00
2022-08-24T01:20:49.451Z,7.82
2022-08-24T01:23:39.851Z,6.68
2022-08-24T01:26:10.580Z,7.18
2022-08-24T01:28:40.602Z,6.90
2022-08-24T01:31:08.626Z,6.82
2022-08-24T01:33:35.818Z,7.15
2022-08-24T01:36:18.721Z,6.82
2022-08-24T01:38:48.111Z,6.70
2022-08-24T01:41:15.309Z,6.47
2022-08-24T01:43:42.050Z,7.25
2022-08-24T01:46:09.216Z,7.25
2022-08-24T01:48:36.588Z,13.25
2022-08-24T01:51:04.427Z,7.85
2022-08-24T01:53:31.519Z,7.37
2022-08-24T01:55:58.840Z,6.80
2022-08-24T01:58:25.845Z,6.75
2022-08-24T02:00:52.983Z,6.82
2022-08-24T02:03:20.571Z,6.32
2022-08-24T02:05:54.455Z,11.07
2022-08-24T02:08:21.698Z,8.95
2022-08-24T02:10:56.300Z,8.52
2022-08-24T02:13:24.356Z,8.75
2022-08-24T02:15:51.209Z,7.12
2022-08-24T02:18:17.865Z,6.62
2022-08-24T02:20:45.312Z,7.22
2022-08-24T02:23:12.397Z,6.50
2022-08-24T02:25:39.155Z,7.40
2022-08-24T02:28:06.181Z,6.80
2022-08-24T02:30:32.991Z,7.45
2022-08-24T02:33:00.396Z,6.90
2022-08-24T02:35:29.756Z,6.75
2022-08-24T02:37:57.647Z,7.22
2022-08-24T02:40:26.067Z,7.20
2022-08-24T02:42:53.308Z,6.85
2022-08-24T02:45:21.518Z,7.40
2022-08-24T02:47:48.326Z,6.90
2022-08-24T02:50:18.088Z,6.35
2022-08-24T02:52:47.593Z,6.72
2022-08-24T02:55:20.144Z,7.10
2022-08-24T02:57:48.907Z,14.02
2022-08-24T03:00:19.071Z,8.20
2022-08-24T03:02:46.624Z,16.67
2022-08-24T03:05:15.421Z,9.02
2022-08-24T03:07:43.372Z,13.60
2022-08-24T03:10:12.059Z,17.10
2022-08-24T03:12:40.136Z,9.27
2022-08-24T03:15:10.621Z,10.05
2022-08-24T03:17:39.866Z,7.60
2022-08-24T03:20:12.456Z,6.25
2022-08-24T03:22:39.829Z,6.43
2022-08-24T03:25:07.387Z,6.72
2022-08-24T03:27:34.613Z,6.93
2022-08-24T03:30:01.753Z,7.85
2022-08-24T03:32:29.162Z,6.30
2022-08-24T03:34:56.147Z,9.43
2022-08-24T03:37:22.826Z,6.90
2022-08-24T03:39:51.008Z,7.45
2022-08-24T03:42:18.430Z,6.75
2022-08-24T03:44:45.186Z,6.72
2022-08-24T03:47:13.849Z,7.07
2022-08-24T03:49:41.001Z,7.68
2022-08-24T03:52:07.890Z,6.53
2022-08-24T03:54:34.640Z,7.43
2022-08-24T03:57:01.780Z,6.75
2022-08-24T03:59:28.738Z,7.00
2022-08-24T04:01:57.452Z,8.52
2022-08-24T04:04:27.156Z,7.78
2022-08-24T04:06:55.160Z,7.50
2022-08-24T04:09:22.429Z,7.82
2022-08-24T04:11:51.980Z,12.98
2022-08-24T04:14:27.311Z,8.15
2022-08-24T04:16:57.510Z,8.55
2022-08-24T04:19:25.795Z,8.55
2022-08-24T04:21:52.722Z,8.80
2022-08-24T04:24:20.489Z,7.53
2022-08-24T04:26:47.598Z,8.13
2022-08-24T04:29:16.603Z,8.82
2022-08-24T04:31:45.410Z,8.63
2022-08-24T04:34:15.659Z,8.20
2022-08-24T04:36:44.860Z,8.70
2022-08-24T04:39:12.989Z,7.45
2022-08-24T04:41:42.691Z,8.43
2022-08-24T04:44:09.717Z,7.70
2022-08-24T04:46:37.689Z,7.95
2022-08-24T04:49:04.496Z,7.20
2022-08-24T04:51:36.719Z,7.70
2022-08-24T04:54:06.203Z,6.50
2022-08-24T04:56:32.948Z,12.90
2022-08-24T04:59:00.156Z,7.18
2022-08-24T05:01:32.749Z,6.75
2022-08-24T05:04:00.349Z,6.30
2022-08-24T05:06:30.290Z,7.12
2022-08-24T05:08:57.121Z,7.65
2022-08-24T05:11:24.600Z,6.40
2022-08-24T05:13:53.229Z,6.80
2022-08-24T05:16:21.192Z,6.45
2022-08-24T05:18:48.347Z,10.00
2022-08-24T05:21:19.929Z,6.93
2022-08-24T05:23:49.664Z,6.97
2022-08-24T05:26:24.339Z,8.75
2022-08-24T05:28:55.443Z,9.60
2022-08-24T05:31:26.272Z,6.87
2022-08-24T05:33:53.479Z,6.68
2022-08-24T05:36:29.250Z,7.00
2022-08-24T05:38:58.212Z,7.35
2022-08-24T05:41:25.323Z,7.82
2022-08-24T05:43:54.098Z,6.93
2022-08-24T05:46:21.744Z,7.05
2022-08-24T05:48:52.589Z,5.82
2022-08-24T05:51:23.096Z,6.78
2022-08-24T05:53:50.129Z,6.55
2022-08-24T05:56:18.723Z,6.32
2022-08-24T05:58:46.945Z,5.68
2022-08-24T06:01:20.932Z,6.10
2022-08-24T06:03:49.566Z,5.20
2022-08-24T06:06:17.869Z,6.25
2022-08-24T06:08:47.954Z,5.78
2022-08-24T06:11:24.833Z,5.47
2022-08-24T06:14:00.602Z,5.78
2022-08-24T06:16:29.432Z,6.70
2022-08-24T06:18:56.496Z,5.05
2022-08-24T06:21:28.382Z,5.50
2022-08-24T06:23:56.874Z,5.20
2022-08-24T06:26:42.470Z,5.20
2022-08-24T06:29:10.605Z,5.30
2022-08-24T06:31:42.496Z,5.37
2022-08-24T06:34:13.147Z,5.95
2022-08-24T06:36:40.234Z,6.32
2022-08-24T06:39:09.945Z,5.43
2022-08-24T06:41:39.193Z,5.32
2022-08-24T06:44:08.790Z,5.45
2022-08-24T06:46:42.769Z,5.28
2022-08-24T06:49:09.712Z,5.00
2022-08-24T06:51:36.473Z,4.90
2022-08-24T06:54:05.116Z,5.18
2022-08-24T06:56:32.249Z,5.35
2022-08-24T06:59:00.606Z,5.43
2022-08-24T07:01:28.429Z,4.97
2022-08-24T07:03:56.912Z,5.47
2022-08-24T07:06:27.230Z,5.50
2022-08-24T07:08:56.511Z,5.37
2022-08-24T07:11:25.037Z,5.45
2022-08-24T07:13:51.980Z,5.95
2022-08-24T07:16:20.134Z,10.23
2022-08-24T07:18:49.985Z,7.60
2022-08-24T07:21:19.921Z,14.45
2022-08-24T07:23:48.926Z,11.18
2022-08-24T07:26:21.820Z,22.08
2022-08-24T07:28:54.607Z,8.95
2022-08-24T07:31:22.186Z,11.43
2022-08-24T07:33:50.484Z,7.20
2022-08-24T07:36:22.688Z,8.77
2022-08-24T07:38:54.507Z,6.20
2022-08-24T07:41:51.459Z,6.12
2022-08-24T07:44:12.596Z,5.22
2022-08-24T07:46:41.186Z,5.07
2022-08-24T07:49:21.429Z,5.70
2022-08-24T07:51:58.605Z,6.20
2022-08-24T07:54:25.784Z,7.75
2022-08-24T07:56:52.574Z,6.82
2022-08-24T07:59:19.730Z,6.15
2022-08-24T08:01:46.717Z,6.18
2022-08-24T08:04:15.362Z,5.55
2022-08-24T08:06:43.175Z,5.45
2022-08-24T08:09:10.176Z,6.07
2022-08-24T08:11:37.162Z,5.65
2022-08-24T08:14:03.921Z,5.50
2022-08-24T08:16:31.192Z,5.70
2022-08-24T08:19:09.907Z,5.68
2022-08-24T08:22:05.231Z,6.45
2022-08-24T08:24:33.798Z,5.82
2022-08-24T08:27:02.596Z,5.75
2022-08-24T08:29:32.835Z,6.30
2022-08-24T08:34:29.153Z,5.90
2022-08-24T08:36:56.407Z,7.15
2022-08-24T08:39:25.889Z,6.20
2022-08-24T08:42:02.386Z,6.47
2022-08-24T08:44:46.444Z,5.85
2022-08-24T08:47:51.124Z,6.05
2022-08-24T08:50:26.280Z,5.65
2022-08-24T08:53:26.984Z,6.05
2022-08-24T08:56:09.618Z,5.97
2022-08-24T08:59:07.352Z,6.05
2022-08-24T09:01:47.938Z,8.18
2022-08-24T09:04:37.220Z,5.80
2022-08-24T09:07:08.899Z,6.22
2022-08-24T09:09:55.585Z,5.28
2022-08-24T09:12:38.086Z,7.80
2022-08-24T09:15:23.810Z,6.32
2022-08-24T09:18:29.003Z,5.43
2022-08-24T09:21:28.108Z,5.20
2022-08-24T09:24:11.809Z,5.18
2022-08-24T09:27:05.103Z,5.62
2022-08-24T09:29:55.571Z,5.55
2022-08-24T09:32:39.226Z,5.00
2022-08-24T09:35:26.359Z,4.93
2022-08-24T09:38:00.153Z,5.68
2022-08-24T09:41:00.586Z,5.57
2022-08-24T09:43:45.874Z,4.87
2022-08-24T09:46:48.502Z,5.12
2022-08-24T09:49:56.091Z,4.62
2022-08-24T09:52:35.507Z,4.93
2022-08-24T09:55:26.830Z,4.90
2022-08-24T09:58:09.761Z,5.32
2022-08-24T10:00:47.511Z,4.70
2022-08-24T10:03:37.880Z,4.28
2022-08-24T10:06:43.505Z,4.27
2022-08-24T10:09:31.631Z,3.92
2022-08-24T10:12:16.075Z,5.20
2022-08-24T10:15:02.396Z,4.72
2022-08-24T10:17:43.330Z,3.80
2022-08-24T10:23:05.730Z,4.07
2022-08-24T10:25:51.601Z,4.43
2022-08-24T10:28:39.404Z,4.18
2022-08-24T10:31:13.143Z,5.05
2022-08-24T10:33:56.098Z,3.83
2022-08-24T10:37:01.187Z,4.78
2022-08-24T10:39:43.834Z,4.15
2022-08-24T10:42:52.358Z,4.85
2022-08-24T10:45:37.918Z,4.32
2022-08-24T10:48:23.303Z,4.62
2022-08-24T10:50:55.879Z,4.65
2022-08-24T10:53:27.905Z,4.35
2022-08-24T10:56:13.298Z,4.93
2022-08-24T10:58:46.233Z,4.35
2022-08-24T11:01:34.989Z,3.75
2022-08-24T11:04:05.086Z,3.33
2022-08-24T11:06:40.457Z,4.30
2022-08-24T11:09:19.717Z,4.25
2022-08-24T11:11:50.000Z,4.37
2022-08-24T11:14:29.557Z,4.03
2022-08-24T11:17:17.867Z,3.65
2022-08-24T11:19:45.286Z,4.43
2022-08-24T11:22:37.900Z,4.12
2022-08-24T11:25:19.390Z,3.95
2022-08-24T11:27:51.011Z,3.95
2022-08-24T11:30:18.132Z,3.42
2022-08-24T11:32:53.983Z,4.00
2022-08-24T11:35:24.115Z,4.15
2022-08-24T11:37:55.209Z,4.10
2022-08-24T11:40:28.430Z,4.03
2022-08-24T11:43:11.909Z,4.40
2022-08-24T11:45:46.745Z,4.57
2022-08-24T11:48:36.277Z,3.67
2022-08-24T11:51:35.730Z,4.57
2022-08-24T11:54:05.364Z,3.85
2022-08-24T11:56:38.533Z,4.28
2022-08-24T11:59:23.643Z,4.53
2022-08-24T12:01:58.676Z,4.87
2022-08-24T12:04:44.777Z,4.00
2022-08-24T12:07:23.910Z,4.10
2022-08-24T12:10:03.731Z,3.65
2022-08-24T12:12:33.647Z,3.65
2022-08-24T12:15:12.800Z,4.12
2022-08-24T12:18:05.251Z,3.90
2022-08-24T12:20:41.313Z,3.22
2022-08-24T12:23:39.967Z,4.07
2022-08-24T12:26:12.468Z,3.90
2022-08-24T12:28:53.639Z,3.65
2022-08-24T12:31:49.515Z,3.67
2022-08-24T12:34:26.123Z,3.67
2022-08-24T12:36:58.465Z,3.25
2022-08-24T12:39:39.176Z,3.50
2022-08-24T12:42:18.832Z,3.60
2022-08-24T12:45:06.033Z,3.67
2022-08-24T12:47:46.642Z,3.28
2022-08-24T12:50:25.185Z,3.62
2022-08-24T12:53:12.260Z,3.50
2022-08-24T12:56:20.519Z,3.33
2022-08-24T12:59:03.167Z,4.20
2022-08-24T13:01:35.764Z,3.30
2022-08-24T13:04:53.830Z,3.17
2022-08-24T13:07:23.520Z,4.05
2022-08-24T13:09:53.588Z,4.40
2022-08-24T13:12:41.744Z,3.53
2022-08-24T13:15:24.543Z,4.15
2022-08-24T13:18:00.265Z,4.20
2022-08-24T13:20:38.531Z,4.05
2022-08-24T13:23:16.115Z,4.10
2022-08-24T13:26:11.091Z,5.12
2022-08-24T13:28:47.872Z,3.65
2022-08-24T13:31:38.565Z,3.95
2022-08-24T13:34:14.731Z,4.50
2022-08-24T13:36:48.690Z,4.60
2022-08-24T13:39:45.755Z,4.00
2022-08-24T13:42:30.119Z,4.15
2022-08-24T13:45:34.443Z,4.10
2022-08-24T13:48:07.620Z,4.25
2022-08-24T13:50:42.423Z,4.20
2022-08-24T13:53:31.291Z,4.25
2022-08-24T13:56:19.559Z,4.00
2022-08-24T13:58:52.516Z,4.12
2022-08-24T14:01:51.364Z,4.20
2022-08-24T14:04:34.516Z,3.85
2022-08-24T14:07:03.930Z,3.87
2022-08-24T14:09:52.735Z,3.87
2022-08-24T14:12:36.265Z,3.62
2022-08-24T14:15:09.360Z,3.87
2022-08-24T14:17:54.143Z,3.78
2022-08-24T14:20:33.571Z,4.32
2022-08-24T14:23:10.171Z,3.12
2022-08-24T14:25:37.136Z,3.22
2022-08-24T14:28:42.051Z,3.78
2022-08-24T14:31:28.018Z,3.70
2022-08-24T14:34:14.017Z,5.97
2022-08-24T14:36:57.562Z,3.92
2022-08-24T14:39:41.366Z,3.17
2022-08-24T14:42:35.894Z,3.45
2022-08-24T14:45:26.890Z,3.40
2022-08-24T14:48:12.166Z,3.45
2022-08-24T14:51:11.062Z,3.70
2022-08-24T14:53:54.772Z,3.35
2022-08-24T14:56:48.038Z,3.50
2022-08-24T14:59:37.846Z,3.22
2022-08-24T15:02:25.775Z,4.00
2022-08-24T15:04:58.478Z,5.28
2022-08-24T15:07:33.427Z,3.55
2022-08-24T15:10:02.155Z,4.97
2022-08-24T15:12:29.074Z,6.15
2022-08-24T15:15:09.024Z,4.12
2022-08-24T15:18:15.724Z,3.72
2022-08-24T15:21:02.595Z,3.65
2022-08-24T15:24:01.670Z,3.55
2022-08-24T15:26:58.330Z,3.33
2022-08-24T15:29:30.431Z,4.40
2022-08-24T15:32:05.365Z,4.25
2022-08-24T15:34:50.248Z,3.70
2022-08-24T15:37:28.351Z,4.25
2022-08-24T15:39:55.855Z,3.90
2022-08-24T15:42:22.688Z,3.83
2022-08-24T15:44:50.926Z,5.60
2022-08-24T15:47:24.332Z,4.18
2022-08-24T15:50:06.507Z,3.90
2022-08-24T15:52:42.051Z,3.70
2022-08-24T15:55:35.834Z,3.60
2022-08-24T15:58:24.536Z,4.00
2022-08-24T16:01:10.489Z,3.67
2022-08-24T16:03:55.771Z,4.03
2022-08-24T16:06:31.250Z,3.37
2022-08-24T16:09:27.830Z,3.65
2022-08-24T16:11:57.160Z,4.05
2022-08-24T16:14:39.506Z,3.72
2022-08-24T16:17:20.763Z,8.55
2022-08-24T16:19:58.443Z,6.82
2022-08-24T16:22:36.350Z,4.60
2022-08-24T16:25:31.452Z,4.05
2022-08-24T16:28:30.283Z,3.80
2022-08-24T16:31:03.106Z,4.00
2022-08-24T16:33:44.016Z,4.35
2022-08-24T16:36:20.469Z,4.03
2022-08-24T16:38:51.111Z,4.40
2022-08-24T16:41:22.548Z,4.25
2022-08-24T16:46:23.455Z,4.53
2022-08-24T16:48:53.981Z,4.93
2022-08-24T16:51:24.424Z,4.82
2022-08-24T16:53:52.129Z,4.60
2022-08-24T16:56:19.259Z,4.03
2022-08-24T16:58:47.567Z,4.53
2022-08-24T17:01:15.967Z,4.60
2022-08-24T17:03:44.270Z,4.35
2022-08-24T17:06:12.532Z,4.28
2022-08-24T17:08:39.904Z,4.35
2022-08-24T17:11:06.683Z,4.37
2022-08-24T17:13:48.860Z,3.60
2022-08-24T17:16:18.035Z,4.80
2022-08-24T17:18:44.773Z,4.57
2022-08-24T17:21:11.443Z,7.05
2022-08-24T17:23:40.707Z,4.90
2022-08-24T17:26:20.812Z,5.05
2022-08-24T17:28:52.378Z,5.93
2022-08-24T17:31:19.411Z,5.45
2022-08-24T17:33:48.269Z,5.93
2022-08-24T17:36:18.512Z,5.97
2022-08-24T17:38:53.130Z,6.07
2022-08-24T17:41:24.520Z,6.82
2022-08-24T17:43:52.445Z,6.70
2022-08-24T17:46:20.457Z,6.90
2022-08-24T17:48:48.775Z,6.22
2022-08-24T17:51:15.941Z,6.12
2022-08-24T17:53:42.752Z,6.85
2022-08-24T17:56:13.103Z,6.32
2022-08-24T17:58:59.364Z,6.07
2022-08-24T18:01:26.936Z,6.32
2022-08-24T18:03:54.310Z,6.68
2022-08-24T18:06:25.933Z,6.55
2022-08-24T18:08:56.589Z,6.82
2022-08-24T18:11:25.955Z,7.18
2022-08-24T18:13:54.415Z,7.10
2022-08-24T18:16:23.699Z,6.80
2022-08-24T18:18:52.215Z,6.18
2022-08-24T18:21:20.195Z,7.30
2022-08-24T18:23:50.832Z,7.95
2022-08-24T18:26:27.875Z,7.65
2022-08-24T18:28:58.173Z,7.85
2022-08-24T18:31:27.832Z,7.80
2022-08-24T18:33:54.642Z,7.35
2022-08-24T18:36:21.486Z,7.07
2022-08-24T18:38:48.575Z,7.40
2022-08-24T18:41:15.546Z,7.57
2022-08-24T18:43:42.332Z,8.10
2022-08-24T18:46:09.585Z,7.15
2022-08-24T18:48:36.459Z,7.53
2022-08-24T18:51:03.810Z,7.10
2022-08-24T18:53:30.867Z,7.05
2022-08-24T18:56:00.573Z,6.90
2022-08-24T18:58:30.311Z,7.28
2022-08-24T19:00:57.170Z,7.05
2022-08-24T19:03:25.709Z,7.32
2022-08-24T19:05:52.866Z,7.18
2022-08-24T19:08:19.760Z,7.20
2022-08-24T19:10:46.544Z,6.05
2022-08-24T19:13:18.454Z,6.82
2022-08-24T19:15:49.530Z,7.22
2022-08-24T19:18:18.973Z,6.78
2022-08-24T19:20:50.389Z,7.20
2022-08-24T19:23:24.780Z,6.43
2022-08-24T19:25:52.373Z,6.50
2022-08-24T19:28:20.086Z,6.55
2022-08-24T19:30:47.647Z,7.07
2022-08-24T19:33:22.239Z,8.15
2022-08-24T19:35:51.113Z,6.47
2022-08-24T19:38:21.917Z,6.57
2022-08-24T19:40:52.698Z,7.12
2022-08-24T19:43:19.431Z,7.32
2022-08-24T19:46:04.937Z,7.03
2022-08-24T19:48:35.214Z,6.43
2022-08-24T19:51:08.562Z,5.78
2022-08-24T19:53:37.544Z,6.57
2022-08-24T19:56:06.707Z,6.93
2022-08-24T19:58:57.869Z,6.55
2022-08-24T20:01:31.548Z,6.60
2022-08-24T20:03:58.640Z,7.18
2022-08-24T20:06:25.962Z,7.45
2022-08-24T20:08:53.546Z,6.78
2022-08-24T20:11:25.071Z,7.12
2022-08-24T20:13:53.228Z,6.53
2022-08-24T20:16:22.228Z,7.62
2022-08-24T20:18:49.715Z,8.35
2022-08-24T20:21:16.970Z,7.55
2022-08-24T20:23:45.404Z,7.45
2022-08-24T20:26:13.516Z,7.40
2022-08-24T20:28:46.952Z,7.22
2022-08-24T20:31:14.845Z,7.45
2022-08-24T20:33:41.791Z,7.15
2022-08-24T20:36:21.401Z,7.28
2022-08-24T20:38:48.654Z,6.68
2022-08-24T20:41:15.903Z,6.95
2022-08-24T20:43:42.626Z,6.43
2022-08-24T20:46:09.959Z,6.53
2022-08-24T20:48:41.499Z,7.15
2022-08-24T20:51:10.644Z,7.47
2022-08-24T20:53:37.743Z,9.18
2022-08-24T20:56:08.961Z,7.68
2022-08-24T20:58:38.387Z,7.10
2022-08-24T21:01:07.048Z,7.20
2022-08-24T21:03:34.189Z,6.90
2022-08-24T21:06:02.583Z,7.50
2022-08-24T21:08:29.336Z,6.72
2022-08-24T21:10:56.255Z,6.85
2022-08-24T21:13:23.139Z,7.37
2022-08-24T21:15:50.012Z,7.43
2022-08-24T21:18:16.760Z,8.40
2022-08-24T21:20:44.654Z,6.85
2022-08-24T21:23:30.109Z,6.62
2022-08-24T21:25:57.562Z,6.65
2022-08-24T21:28:24.280Z,6.87
2022-08-24T21:30:50.984Z,7.45
2022-08-24T21:33:36.347Z,6.90
2022-08-24T21:36:03.377Z,6.22
2022-08-24T21:38:30.435Z,7.05
2022-08-24T21:40:58.525Z,6.75
2022-08-24T21:43:26.145Z,6.68
2022-08-24T21:45:54.491Z,13.38
2022-08-24T21:48:21.197Z,8.07
2022-08-24T21:50:48.728Z,6.82
2022-08-24T21:53:16.067Z,6.70
2022-08-24T21:55:43.313Z,7.22
2022-08-24T21:58:11.406Z,6.45
2022-08-24T22:00:39.277Z,7.30
2022-08-24T22:03:07.163Z,7.32
2022-08-24T22:05:34.221Z,6.68
2022-08-24T22:08:01.062Z,6.47
2022-08-24T22:10:28.296Z,6.78
2022-08-24T22:12:54.948Z,5.70
2022-08-24T22:15:23.429Z,5.80
2022-08-24T22:17:52.720Z,6.12
2022-08-24T22:20:23.332Z,26.62
2022-08-24T22:22:50.911Z,15.32
2022-08-24T22:25:17.881Z,9.77
2022-08-24T22:27:46.211Z,13.23
2022-08-24T22:30:17.015Z,7.20
2022-08-24T22:32:44.898Z,5.75
2022-08-24T22:35:11.754Z,6.20
2022-08-24T22:37:38.764Z,6.55
2022-08-24T22:40:06.460Z,6.43
2022-08-24T22:42:40.067Z,6.15
2022-08-24T22:45:07.848Z,7.12
2022-08-24T22:47:34.546Z,6.32
2022-08-24T22:50:04.733Z,5.78
2022-08-24T22:52:31.363Z,6.47
2022-08-24T22:54:58.237Z,6.30
2022-08-24T22:57:26.786Z,6.55
2022-08-24T22:59:54.770Z,6.75
2022-08-24T23:02:22.261Z,5.32
2022-08-24T23:04:52.449Z,5.87
2022-08-24T23:07:19.912Z,6.25
2022-08-24T23:09:47.151Z,6.30
2022-08-24T23:12:17.761Z,5.95
2022-08-24T23:14:44.581Z,5.62
2022-08-24T23:17:11.670Z,5.80
2022-08-24T23:19:57.435Z,5.50
2022-08-24T23:22:24.136Z,6.25
2022-08-24T23:24:53.116Z,5.85
2022-08-24T23:27:20.218Z,5.87
2022-08-24T23:29:48.572Z,5.82
2022-08-24T23:32:17.998Z,5.87
2022-08-24T23:34:46.224Z,6.43
2022-08-24T23:37:15.509Z,5.90
2022-08-24T23:39:43.159Z,5.70
2022-08-24T23:42:10.055Z,6.00
2022-08-24T23:44:37.564Z,5.60
2022-08-24T23:47:05.570Z,5.75
2022-08-24T23:49:32.377Z,5.75
2022-08-24T23:51:59.697Z,6.28
2022-08-24T23:54:27.596Z,5.97
2022-08-24T23:56:54.868Z,5.93
2022-08-24T23:59:24.609Z,6.35
